Time;durP1;ratioP1;P1;durP2;ratioP2;P2;SDS_P1;SDS_P2;PMS_P1;PMS_P2;Temp;Humidity;BMP_temperature;BMP_pressure;BME280_temperature;BME280_humidity;BME280_pressure;Samples;Min_cycle;Max_cycle;Signal;HPM_P1;HPM_P2
2023/06/18 00:01:33;;;;;;;7.20;5.90;;;23.10;99.90;;;;;;5018347;28;20221;-60
2023/06/18 00:04:01;;;;;;;6.67;5.60;;;23.20;99.90;;;;;;5036008;28;21005;-60
2023/06/18 00:06:28;;;;;;;5.70;5.13;;;23.10;99.90;;;;;;5033201;28;20221;-61
2023/06/18 00:08:55;;;;;;;6.93;5.13;;;23.20;99.90;;;;;;5025340;28;21898;-61
2023/06/18 00:11:22;;;;;;;8.03;5.67;;;23.20;99.90;;;;;;5033945;28;20215;-60
2023/06/18 00:13:49;;;;;;;5.50;4.70;;;23.30;99.90;;;;;;5035882;28;20725;-62
2023/06/18 00:16:16;;;;;;;5.70;5.20;;;23.20;99.90;;;;;;5039405;28;20203;-61
2023/06/18 00:18:43;;;;;;;6.30;5.33;;;23.20;99.90;;;;;;5039898;28;20249;-60
2023/06/18 00:21:11;;;;;;;5.50;5.00;;;23.30;99.90;;;;;;5017991;28;20242;-60
2023/06/18 00:23:39;;;;;;;6.00;5.43;;;23.20;99.90;;;;;;5017318;28;20208;-60
2023/06/18 00:26:06;;;;;;;8.30;5.93;;;23.20;99.90;;;;;;5018924;28;20204;-61
2023/06/18 00:28:32;;;;;;;6.53;5.75;;;23.10;99.90;;;;;;5015006;28;20220;-60
2023/06/18 00:31:01;;;;;;;5.53;5.03;;;23.10;99.90;;;;;;5018014;28;20624;-61
2023/06/18 00:33:29;;;;;;;6.57;5.15;;;23.20;99.90;;;;;;5021757;28;20192;-61
2023/06/18 00:35:59;;;;;;;5.80;4.90;;;23.10;99.90;;;;;;5019583;28;20201;-61
2023/06/18 00:38:27;;;;;;;6.00;5.18;;;23.10;99.90;;;;;;5018123;28;20231;-60
2023/06/18 00:40:54;;;;;;;7.27;5.50;;;23.00;99.90;;;;;;5023671;28;20200;-61
2023/06/18 00:43:21;;;;;;;5.67;5.10;;;23.00;99.90;;;;;;5015961;28;20204;-60
2023/06/18 00:45:48;;;;;;;6.33;5.50;;;22.90;99.90;;;;;;5014106;28;20210;-60
2023/06/18 00:48:17;;;;;;;6.23;5.23;;;23.00;99.90;;;;;;5017390;28;20244;-61
2023/06/18 00:50:44;;;;;;;5.80;5.20;;;22.90;99.90;;;;;;5033399;28;20209;-60
2023/06/18 00:53:13;;;;;;;5.70;5.10;;;23.00;99.90;;;;;;5018340;28;20290;-60
2023/06/18 00:55:41;;;;;;;7.37;6.03;;;22.90;99.90;;;;;;5021074;28;20210;-60
2023/06/18 00:58:08;;;;;;;6.40;5.80;;;22.90;99.90;;;;;;5017043;28;20209;-60
2023/06/18 01:00:35;;;;;;;6.83;6.20;;;22.90;99.90;;;;;;5017539;28;20211;-60
2023/06/18 01:03:12;;;;;;;6.80;5.73;;;22.90;99.90;;;;;;5019163;28;20578;-60
2023/06/18 01:05:39;;;;;;;11.43;5.60;;;22.90;99.90;;;;;;5018612;28;20307;-60
2023/06/18 01:08:07;;;;;;;8.47;6.27;;;22.80;99.90;;;;;;5017791;28;20239;-60
2023/06/18 01:10:39;;;;;;;9.00;6.43;;;22.80;99.90;;;;;;5033878;28;20212;-60
2023/06/18 01:13:11;;;;;;;7.37;6.00;;;22.70;99.90;;;;;;5015828;28;20640;-60
2023/06/18 01:15:38;;;;;;;15.03;8.47;;;22.70;99.90;;;;;;5017562;28;20886;-61
2023/06/18 01:18:07;;;;;;;11.17;7.10;;;22.70;99.90;;;;;;5017109;28;20231;-60
2023/06/18 01:20:44;;;;;;;8.67;6.80;;;22.70;99.90;;;;;;5017698;28;20246;-59
2023/06/18 01:23:29;;;;;;;7.37;6.67;;;22.60;99.90;;;;;;5038097;28;20212;-60
2023/06/18 01:25:59;;;;;;;7.50;6.80;;;22.60;99.90;;;;;;5035761;28;20668;-60
2023/06/18 01:28:29;;;;;;;7.30;6.60;;;22.60;99.90;;;;;;5034139;28;20223;-60
2023/06/18 01:30:57;;;;;;;11.00;7.03;;;22.50;99.90;;;;;;5038366;28;20202;-60
2023/06/18 01:33:25;;;;;;;9.67;7.03;;;22.50;99.90;;;;;;5035097;28;20207;-60
2023/06/18 01:35:52;;;;;;;8.40;7.43;;;22.50;99.90;;;;;;5019885;28;20233;-60
2023/06/18 01:38:36;;;;;;;8.90;6.57;;;22.40;99.90;;;;;;5037083;28;20256;-60
2023/06/18 01:41:15;;;;;;;6.57;5.87;;;22.50;99.90;;;;;;5038039;28;20288;-59
2023/06/18 01:43:51;;;;;;;8.50;7.30;;;22.50;99.90;;;;;;5037883;28;20217;-60
2023/06/18 01:46:22;;;;;;;9.57;7.27;;;22.50;99.90;;;;;;5040066;28;20257;-60
2023/06/18 01:48:56;;;;;;;9.60;8.10;;;22.50;99.90;;;;;;5035564;28;20216;-60
2023/06/18 01:51:25;;;;;;;9.07;7.70;;;22.40;99.90;;;;;;5035113;28;20199;-60
2023/06/18 01:53:54;;;;;;;9.87;8.03;;;22.30;99.90;;;;;;5038021;28;20216;-60
2023/06/18 01:56:22;;;;;;;9.53;8.60;;;22.30;99.90;;;;;;5040430;28;20222;-60
2023/06/18 01:58:50;;;;;;;9.20;7.73;;;22.30;99.90;;;;;;5038203;28;21450;-61
2023/06/18 02:01:17;;;;;;;9.37;7.47;;;22.30;99.90;;;;;;5039765;28;20200;-61
2023/06/18 02:03:43;;;;;;;9.10;7.37;;;22.20;99.90;;;;;;5039958;28;20208;-60
2023/06/18 02:06:11;;;;;;;9.90;7.37;;;22.20;99.90;;;;;;5035184;28;20215;-61
2023/06/18 02:08:38;;;;;;;8.17;7.33;;;22.20;99.90;;;;;;5020526;28;20215;-60
2023/06/18 02:11:05;;;;;;;11.03;7.57;;;22.30;99.90;;;;;;5038450;28;20790;-63
2023/06/18 02:13:32;;;;;;;8.77;7.87;;;22.20;99.90;;;;;;5038594;28;20298;-60
2023/06/18 02:15:58;;;;;;;8.60;6.93;;;22.20;99.90;;;;;;5021861;28;20818;-61
2023/06/18 02:18:25;;;;;;;8.97;7.10;;;22.20;99.90;;;;;;5040203;28;20220;-60
2023/06/18 02:20:52;;;;;;;7.67;6.87;;;22.20;99.90;;;;;;5039600;28;20227;-60
2023/06/18 02:23:19;;;;;;;12.47;8.43;;;22.10;99.90;;;;;;5036112;28;20610;-60
2023/06/18 02:25:47;;;;;;;9.80;7.97;;;21.90;99.90;;;;;;5038963;28;20204;-63
2023/06/18 02:28:14;;;;;;;10.37;7.80;;;21.90;99.90;;;;;;5037369;28;20307;-60
2023/06/18 02:30:41;;;;;;;9.13;7.80;;;21.90;99.90;;;;;;5035627;28;20208;-61
2023/06/18 02:33:10;;;;;;;11.03;7.90;;;21.90;99.90;;;;;;5036310;28;20224;-60
2023/06/18 02:35:37;;;;;;;10.63;8.23;;;21.90;99.90;;;;;;5036694;28;20211;-61
2023/06/18 02:38:04;;;;;;;10.17;9.17;;;21.90;99.90;;;;;;5028578;28;20213;-60
2023/06/18 02:40:31;;;;;;;11.33;8.70;;;21.80;99.90;;;;;;5037118;28;20211;-60
2023/06/18 02:42:58;;;;;;;13.23;9.57;;;21.70;99.90;;;;;;5035902;28;20207;-61
2023/06/18 02:45:26;;;;;;;10.27;8.23;;;21.70;99.90;;;;;;5038195;28;21113;-60
2023/06/18 02:47:52;;;;;;;12.07;9.40;;;21.70;99.90;;;;;;5019626;28;20234;-61
2023/06/18 02:50:20;;;;;;;12.80;8.80;;;21.70;99.90;;;;;;5019191;28;20204;-62
2023/06/18 02:52:48;;;;;;;10.43;9.23;;;21.60;99.90;;;;;;5033901;28;20400;-62
2023/06/18 02:55:15;;;;;;;12.67;9.13;;;21.60;99.90;;;;;;5038157;28;20691;-60
2023/06/18 02:57:42;;;;;;;9.90;8.90;;;21.60;99.90;;;;;;5035510;28;20210;-60
2023/06/18 03:00:13;;;;;;;10.50;9.50;;;21.50;99.90;;;;;;5035149;28;20208;-60
2023/06/18 03:02:41;;;;;;;11.80;8.80;;;21.50;99.90;;;;;;5033956;28;20204;-59
2023/06/18 03:05:09;;;;;;;11.53;9.17;;;21.50;99.90;;;;;;5017599;28;20224;-60
2023/06/18 03:07:37;;;;;;;10.07;9.13;;;21.40;99.90;;;;;;5037025;28;20217;-59
2023/06/18 03:10:04;;;;;;;10.10;9.10;;;21.30;99.90;;;;;;5022986;28;20825;-59
2023/06/18 03:12:31;;;;;;;11.37;9.33;;;21.30;99.90;;;;;;5032747;28;20218;-59
2023/06/18 03:14:58;;;;;;;10.30;9.20;;;21.30;99.90;;;;;;5037691;28;20199;-59
2023/06/18 03:17:25;;;;;;;10.03;9.03;;;21.20;99.90;;;;;;5034101;28;20207;-60
2023/06/18 03:19:52;;;;;;;12.60;9.43;;;21.20;99.90;;;;;;5035487;28;20852;-59
2023/06/18 03:22:19;;;;;;;11.87;10.17;;;21.20;99.90;;;;;;5035072;28;20239;-59
2023/06/18 03:24:49;;;;;;;9.93;8.93;;;21.20;99.90;;;;;;5033791;28;20204;-59
2023/06/18 03:27:16;;;;;;;14.10;10.47;;;21.20;99.90;;;;;;5034271;28;20208;-59
2023/06/18 03:29:43;;;;;;;10.93;9.83;;;21.20;99.90;;;;;;5014251;28;21880;-59
2023/06/18 03:32:10;;;;;;;12.37;9.77;;;21.10;99.90;;;;;;5032217;28;20200;-59
2023/06/18 03:34:42;;;;;;;11.13;10.13;;;21.10;99.90;;;;;;5037650;28;20215;-59
2023/06/18 03:37:09;;;;;;;10.10;9.00;;;21.00;99.90;;;;;;5020312;28;20216;-59
2023/06/18 03:39:36;;;;;;;11.40;10.20;;;21.00;99.90;;;;;;5037161;28;20646;-59
2023/06/18 03:42:03;;;;;;;10.83;9.70;;;20.90;99.90;;;;;;5035396;28;20213;-59
2023/06/18 03:44:30;;;;;;;12.73;10.33;;;20.90;99.90;;;;;;5036899;28;20942;-59
2023/06/18 03:46:57;;;;;;;13.37;10.23;;;20.90;99.90;;;;;;5035037;28;20207;-59
2023/06/18 03:49:24;;;;;;;13.30;10.63;;;20.90;99.90;;;;;;5021246;28;20212;-59
2023/06/18 03:51:51;;;;;;;13.10;10.13;;;20.90;99.90;;;;;;5037164;28;20214;-60
2023/06/18 03:54:18;;;;;;;11.37;10.17;;;20.90;99.90;;;;;;5024871;28;20668;-59
2023/06/18 03:56:45;;;;;;;10.90;9.77;;;21.00;99.90;;;;;;5037029;28;20676;-59
2023/06/18 03:59:12;;;;;;;11.73;10.47;;;20.90;99.90;;;;;;5018618;28;20581;-60
2023/06/18 04:01:38;;;;;;;11.43;10.23;;;20.90;99.90;;;;;;5035058;28;20204;-59
2023/06/18 04:04:05;;;;;;;11.47;10.27;;;21.00;99.90;;;;;;5038540;28;20211;-60
2023/06/18 04:06:32;;;;;;;16.07;9.83;;;21.00;99.90;;;;;;5039717;28;20204;-60
2023/06/18 04:08:59;;;;;;;12.53;10.93;;;21.00;99.90;;;;;;5037894;28;20270;-59
2023/06/18 04:11:27;;;;;;;15.00;10.53;;;21.00;99.90;;;;;;5020790;28;20270;-59
2023/06/18 04:13:54;;;;;;;11.23;10.13;;;20.90;99.90;;;;;;5037121;28;20651;-59
2023/06/18 04:16:21;;;;;;;12.57;10.93;;;20.90;99.90;;;;;;5038874;28;20810;-59
2023/06/18 04:18:48;;;;;;;12.30;10.77;;;20.80;99.90;;;;;;5017357;28;20591;-59
2023/06/18 04:21:15;;;;;;;11.90;10.70;;;20.90;99.90;;;;;;5037754;28;20255;-61
2023/06/18 04:23:42;;;;;;;12.37;10.97;;;20.90;99.90;;;;;;5039219;28;20333;-61
2023/06/18 04:26:09;;;;;;;15.07;10.30;;;20.90;99.90;;;;;;5038902;28;20206;-59
2023/06/18 04:28:36;;;;;;;12.17;10.90;;;21.00;99.90;;;;;;5038472;28;20209;-59
2023/06/18 04:31:03;;;;;;;16.37;11.67;;;20.90;99.90;;;;;;5016807;28;20664;-59
2023/06/18 04:33:30;;;;;;;13.53;10.93;;;20.90;99.90;;;;;;5035577;28;20858;-59
2023/06/18 04:35:57;;;;;;;14.43;11.33;;;20.90;99.90;;;;;;5034646;28;22621;-59
2023/06/18 04:38:23;;;;;;;14.30;11.37;;;20.90;99.90;;;;;;5021546;28;20540;-60
2023/06/18 04:40:50;;;;;;;13.10;11.23;;;20.80;99.90;;;;;;5024466;28;20208;-60
2023/06/18 04:43:20;;;;;;;13.43;11.77;;;20.80;99.90;;;;;;5019296;28;20715;-60
2023/06/18 04:45:47;;;;;;;15.47;11.53;;;20.80;99.90;;;;;;5033659;28;20259;-59
2023/06/18 04:48:14;;;;;;;13.23;11.63;;;20.80;99.90;;;;;;5039318;28;20211;-59
2023/06/18 04:50:41;;;;;;;16.03;12.17;;;20.90;99.90;;;;;;5020512;28;20195;-60
2023/06/18 04:53:08;;;;;;;13.00;11.67;;;20.90;99.90;;;;;;5019327;28;20191;-59
2023/06/18 04:55:36;;;;;;;13.27;11.93;;;20.90;99.90;;;;;;5042033;28;20201;-59
2023/06/18 04:58:07;;;;;;;13.70;11.73;;;20.90;99.90;;;;;;5041057;28;20228;-59
2023/06/18 05:00:33;;;;;;;13.37;12.07;;;20.90;99.90;;;;;;5021632;28;20211;-59
2023/06/18 05:03:01;;;;;;;14.00;12.50;;;20.90;99.90;;;;;;5034929;28;20217;-59
2023/06/18 05:05:29;;;;;;;14.40;12.90;;;20.90;99.90;;;;;;5040118;28;20224;-60
2023/06/18 05:07:55;;;;;;;16.57;12.73;;;21.00;99.90;;;;;;5038152;28;20567;-59
2023/06/18 05:10:23;;;;;;;16.87;12.77;;;21.00;99.90;;;;;;5040733;28;20199;-59
2023/06/18 05:12:50;;;;;;;16.53;13.80;;;20.90;99.90;;;;;;5037755;28;20192;-59
2023/06/18 05:15:17;;;;;;;16.97;13.73;;;20.90;99.90;;;;;;5036784;28;20210;-60
2023/06/18 05:17:44;;;;;;;15.27;13.67;;;21.10;99.90;;;;;;5038872;28;20208;-59
2023/06/18 05:20:11;;;;;;;19.83;13.90;;;21.10;99.90;;;;;;5042234;28;20200;-59
2023/06/18 05:22:40;;;;;;;14.30;12.87;;;21.20;99.90;;;;;;5035465;28;20239;-59
2023/06/18 05:25:07;;;;;;;16.97;13.17;;;21.20;99.90;;;;;;5038470;28;20218;-64
2023/06/18 05:27:34;;;;;;;18.70;13.50;;;21.30;99.90;;;;;;5036834;28;20203;-60
2023/06/18 05:30:02;;;;;;;19.70;14.07;;;21.40;99.90;;;;;;5037440;28;20219;-59
2023/06/18 05:32:29;;;;;;;19.27;13.87;;;21.30;99.90;;;;;;5021376;28;20303;-59
2023/06/18 05:34:56;;;;;;;19.87;13.90;;;21.30;99.90;;;;;;5020699;28;20711;-59
2023/06/18 05:37:23;;;;;;;14.97;13.37;;;21.30;99.90;;;;;;5039627;28;20200;-59
2023/06/18 05:39:53;;;;;;;14.50;13.00;;;21.40;99.90;;;;;;5035163;28;20234;-59
2023/06/18 05:42:20;;;;;;;15.23;13.60;;;21.50;99.90;;;;;;5036117;28;20204;-59
2023/06/18 05:44:47;;;;;;;15.27;13.77;;;21.60;99.90;;;;;;5019527;28;20196;-60
2023/06/18 05:47:14;;;;;;;16.53;13.57;;;21.70;99.90;;;;;;5036769;28;20222;-60
2023/06/18 05:49:41;;;;;;;17.37;14.10;;;21.80;99.90;;;;;;5039419;28;20775;-59
2023/06/18 05:52:08;;;;;;;17.47;14.40;;;21.80;99.90;;;;;;5037023;28;20248;-60
2023/06/18 05:54:35;;;;;;;16.77;14.80;;;21.80;99.90;;;;;;5035806;28;20200;-60
2023/06/18 05:57:02;;;;;;;15.37;13.33;;;21.60;99.90;;;;;;5038678;28;20204;-59
2023/06/18 05:59:29;;;;;;;16.47;13.40;;;21.60;99.90;;;;;;5021911;28;20208;-59
2023/06/18 06:01:56;;;;;;;15.33;13.73;;;21.80;99.90;;;;;;5027873;28;20228;-60
2023/06/18 06:04:24;;;;;;;16.73;13.87;;;21.90;99.90;;;;;;5035490;28;20298;-59
2023/06/18 06:06:51;;;;;;;15.60;13.97;;;22.00;99.90;;;;;;5036512;28;20246;-59
2023/06/18 06:09:18;;;;;;;18.87;14.07;;;22.00;99.90;;;;;;5038865;28;20988;-60
2023/06/18 06:11:45;;;;;;;17.90;13.40;;;22.10;99.90;;;;;;5036110;28;20599;-60
2023/06/18 06:14:12;;;;;;;16.27;13.83;;;22.20;99.90;;;;;;5036483;28;20193;-59
2023/06/18 06:16:39;;;;;;;18.67;13.77;;;22.20;99.90;;;;;;5037807;28;20213;-59
2023/06/18 06:19:06;;;;;;;14.07;12.57;;;22.30;99.90;;;;;;5037986;28;20228;-59
2023/06/18 06:21:33;;;;;;;14.00;12.40;;;22.40;99.90;;;;;;5020050;28;20293;-59
2023/06/18 06:24:01;;;;;;;14.27;12.27;;;22.50;99.90;;;;;;5037070;28;20201;-59
2023/06/18 06:26:28;;;;;;;15.90;12.63;;;22.60;99.90;;;;;;5037730;28;20204;-59
2023/06/18 06:28:55;;;;;;;14.23;12.30;;;22.70;99.90;;;;;;5035348;28;20219;-59
2023/06/18 06:31:22;;;;;;;12.87;11.57;;;22.70;99.90;;;;;;5034767;28;20708;-59
2023/06/18 06:33:50;;;;;;;14.50;13.00;;;22.60;99.90;;;;;;5034417;28;20665;-59
2023/06/18 06:36:17;;;;;;;16.80;13.60;;;22.60;99.90;;;;;;5037100;28;20269;-59
2023/06/18 06:38:44;;;;;;;14.80;13.30;;;22.50;99.90;;;;;;5020850;28;20203;-61
2023/06/18 06:41:11;;;;;;;12.98;11.57;;;22.30;99.90;;;;;;4684204;28;10000204;-60
2023/06/18 06:43:38;;;;;;;13.40;11.70;;;22.00;99.90;;;;;;5001411;28;20213;-61
2023/06/18 06:46:05;;;;;;;14.47;11.87;;;22.10;99.90;;;;;;5034132;28;20209;-60
2023/06/18 06:48:32;;;;;;;12.03;10.87;;;22.30;99.90;;;;;;5018511;28;20850;-61
2023/06/18 06:50:59;;;;;;;12.87;11.50;;;22.40;99.90;;;;;;5038720;28;20258;-60
2023/06/18 06:53:26;;;;;;;12.60;11.30;;;22.30;99.90;;;;;;5024331;28;20209;-60
2023/06/18 06:55:53;;;;;;;14.20;10.67;;;22.20;99.90;;;;;;5031305;28;20679;-60
2023/06/18 06:58:20;;;;;;;13.23;10.67;;;22.20;99.90;;;;;;5032441;28;20230;-61
2023/06/18 07:00:47;;;;;;;11.80;10.57;;;22.30;99.90;;;;;;5009353;28;20200;-61
2023/06/18 07:03:14;;;;;;;11.07;9.90;;;22.40;99.90;;;;;;5002094;28;20648;-62
2023/06/18 07:05:41;;;;;;;13.63;10.57;;;22.50;99.90;;;;;;5036883;28;20199;-61
2023/06/18 07:08:08;;;;;;;10.63;9.53;;;22.50;99.90;;;;;;5016103;28;20268;-60
2023/06/18 07:10:35;;;;;;;10.73;9.57;;;22.40;99.90;;;;;;5038419;28;20211;-61
2023/06/18 07:13:02;;;;;;;14.13;9.77;;;22.50;99.90;;;;;;5033699;28;20531;-59
2023/06/18 07:15:28;;;;;;;9.87;8.83;;;22.80;99.90;;;;;;5035289;28;20848;-62
2023/06/18 07:17:55;;;;;;;12.00;9.33;;;22.80;99.90;;;;;;5037104;28;20565;-60
2023/06/18 07:20:22;;;;;;;11.30;8.90;;;23.10;99.90;;;;;;5034978;28;20223;-60
2023/06/18 07:22:50;;;;;;;9.60;8.60;;;23.10;99.90;;;;;;5036086;28;20201;-61
2023/06/18 07:25:17;;;;;;;9.67;8.40;;;23.20;99.90;;;;;;5037359;28;20203;-61
2023/06/18 07:27:43;;;;;;;8.30;7.60;;;23.10;99.90;;;;;;5036326;28;20680;-61
2023/06/18 07:30:11;;;;;;;9.37;7.77;;;23.10;99.90;;;;;;5036951;28;20323;-61
2023/06/18 07:32:38;;;;;;;10.57;8.17;;;23.10;99.90;;;;;;5037374;28;20640;-59
2023/06/18 07:35:05;;;;;;;8.70;7.80;;;23.20;99.90;;;;;;5039042;28;20224;-60
2023/06/18 07:37:32;;;;;;;8.47;7.57;;;23.40;99.90;;;;;;5039725;28;20219;-59
2023/06/18 07:39:59;;;;;;;9.90;7.57;;;23.40;99.90;;;;;;5041035;28;20262;-60
2023/06/18 07:42:26;;;;;;;8.17;7.37;;;23.60;99.90;;;;;;5023598;28;20208;-60
2023/06/18 07:44:54;;;;;;;7.73;6.70;;;23.70;99.90;;;;;;5039755;28;20264;-60
2023/06/18 07:47:20;;;;;;;8.13;6.80;;;23.80;99.90;;;;;;5041745;28;20250;-60
2023/06/18 07:49:47;;;;;;;7.83;7.07;;;24.00;99.90;;;;;;5022989;28;20553;-61
2023/06/18 07:52:14;;;;;;;10.93;7.27;;;24.10;99.90;;;;;;5021850;28;20196;-62
2023/06/18 07:54:41;;;;;;;8.50;7.27;;;24.00;99.90;;;;;;5034610;28;20204;-61
2023/06/18 07:57:08;;;;;;;7.43;6.70;;;24.00;99.90;;;;;;5039837;28;20214;-60
2023/06/18 07:59:35;;;;;;;7.80;7.00;;;24.00;99.90;;;;;;5033707;28;20212;-60
2023/06/18 08:02:02;;;;;;;7.13;6.43;;;24.10;99.90;;;;;;5039163;28;20686;-60
2023/06/18 08:04:29;;;;;;;7.83;6.90;;;24.00;99.90;;;;;;5018623;28;20202;-59
2023/06/18 08:06:56;;;;;;;7.80;6.97;;;24.10;99.90;;;;;;5035628;28;20201;-62
2023/06/18 08:09:23;;;;;;;6.87;6.17;;;24.10;99.90;;;;;;5037480;28;20560;-58
2023/06/18 08:11:51;;;;;;;7.93;6.70;;;24.20;99.90;;;;;;5019804;28;20229;-60
2023/06/18 08:14:19;;;;;;;9.70;5.73;;;24.40;99.90;;;;;;5032991;28;20662;-59
2023/06/18 08:16:46;;;;;;;6.07;5.47;;;24.60;99.90;;;;;;5037261;28;21279;-58
2023/06/18 08:19:13;;;;;;;8.53;5.97;;;24.70;99.90;;;;;;5038121;28;20227;-58
2023/06/18 08:21:40;;;;;;;7.13;6.43;;;24.70;99.90;;;;;;5036665;28;20247;-58
2023/06/18 08:24:07;;;;;;;8.83;6.57;;;24.70;99.90;;;;;;5035275;28;20474;-59
2023/06/18 08:26:34;;;;;;;6.80;6.20;;;24.70;99.90;;;;;;5006265;28;20198;-58
2023/06/18 08:29:01;;;;;;;9.37;6.33;;;24.70;99.90;;;;;;5035222;28;20219;-58
2023/06/18 08:31:29;;;;;;;7.07;6.37;;;24.90;99.90;;;;;;5039114;28;20248;-59
2023/06/18 08:33:55;;;;;;;8.67;6.40;;;25.20;99.90;;;;;;5035489;28;20202;-59
2023/06/18 08:36:22;;;;;;;8.37;6.30;;;25.00;99.90;;;;;;5038241;28;20208;-58
2023/06/18 08:38:49;;;;;;;7.90;6.33;;;24.70;99.90;;;;;;5040962;28;20200;-59
2023/06/18 08:41:17;;;;;;;8.83;6.00;;;24.80;99.90;;;;;;5037471;28;20230;-61
2023/06/18 08:43:45;;;;;;;7.50;6.00;;;24.80;99.90;;;;;;5034033;28;20219;-58
2023/06/18 08:46:14;;;;;;;6.77;6.13;;;24.80;99.90;;;;;;5034267;28;20203;-58
2023/06/18 08:48:51;;;;;;;7.47;5.43;;;24.90;99.90;;;;;;5032356;28;20294;-58
2023/06/18 08:51:19;;;;;;;9.40;6.25;;;24.90;99.90;;;;;;5032505;28;20657;-58
2023/06/18 08:53:54;;;;;;;6.73;5.80;;;24.70;99.90;;;;;;5032105;28;20208;-61
2023/06/18 08:56:23;;;;;;;8.10;5.78;;;24.70;99.90;;;;;;5037191;28;20216;-60
2023/06/18 08:58:52;;;;;;;5.55;5.05;;;24.70;99.90;;;;;;5031784;28;20198;-60
2023/06/18 09:01:19;;;;;;;6.57;5.85;;;24.70;99.90;;;;;;5037919;28;20196;-60
2023/06/18 09:03:47;;;;;;;5.63;5.13;;;24.70;99.90;;;;;;5035758;28;20262;-61
2023/06/18 09:06:14;;;;;;;5.80;5.30;;;24.50;99.90;;;;;;5037943;28;20204;-64
2023/06/18 09:08:42;;;;;;;8.85;5.63;;;24.50;99.90;;;;;;5033778;28;20591;-59
2023/06/18 09:11:09;;;;;;;8.00;6.40;;;24.50;99.90;;;;;;5034787;28;20772;-62
2023/06/18 09:13:41;;;;;;;8.23;5.53;;;24.40;99.90;;;;;;5034611;28;20200;-59
2023/06/18 09:16:09;;;;;;;6.60;5.97;;;24.40;99.90;;;;;;5026494;28;20231;-59
2023/06/18 09:18:36;;;;;;;6.53;5.70;;;24.40;99.90;;;;;;5035749;28;20720;-59
2023/06/18 09:21:03;;;;;;;8.90;5.73;;;24.40;99.90;;;;;;5039055;28;20236;-59
2023/06/18 09:23:31;;;;;;;6.63;5.93;;;24.40;99.90;;;;;;5032351;28;20262;-59
2023/06/18 09:25:59;;;;;;;6.90;6.18;;;24.50;99.90;;;;;;5031747;28;20257;-59
2023/06/18 09:28:26;;;;;;;9.15;6.57;;;24.20;99.90;;;;;;5033723;28;20231;-59
2023/06/18 09:30:56;;;;;;;6.20;5.45;;;24.20;99.90;;;;;;5037293;28;20208;-60
2023/06/18 09:33:28;;;;;;;5.70;5.10;;;24.40;99.90;;;;;;5036717;28;20557;-59
2023/06/18 09:36:10;;;;;;;6.60;5.93;;;24.30;99.90;;;;;;5035819;28;20453;-64
2023/06/18 09:38:40;;;;;;;7.77;5.03;;;24.40;99.90;;;;;;5037573;28;20203;-63
2023/06/18 09:41:17;;;;;;;6.00;5.40;;;24.30;99.90;;;;;;5038070;28;20220;-60
2023/06/18 09:43:48;;;;;;;5.97;5.37;;;24.20;99.90;;;;;;5033515;28;20206;-61
2023/06/18 09:46:16;;;;;;;6.67;5.77;;;24.20;99.90;;;;;;5037138;28;20230;-60
2023/06/18 09:48:47;;;;;;;6.27;5.63;;;24.30;99.90;;;;;;5039634;28;20254;-61
2023/06/18 09:51:15;;;;;;;6.53;5.43;;;24.20;99.90;;;;;;5038072;28;20654;-60
2023/06/18 09:53:42;;;;;;;6.33;5.53;;;24.10;99.90;;;;;;5034389;28;20204;-60
2023/06/18 09:56:14;;;;;;;5.87;5.37;;;24.10;99.90;;;;;;5020641;28;20216;-61
2023/06/18 09:58:47;;;;;;;7.87;5.40;;;24.10;99.90;;;;;;5034121;28;20196;-61
2023/06/18 10:01:15;;;;;;;7.13;5.63;;;24.10;99.90;;;;;;5019051;28;21115;-60
2023/06/18 10:03:42;;;;;;;5.93;5.27;;;24.30;99.90;;;;;;5037171;28;20312;-60
2023/06/18 10:06:12;;;;;;;7.37;6.03;;;24.40;99.90;;;;;;5037844;28;20204;-60
2023/06/18 10:08:42;;;;;;;6.13;5.53;;;24.50;99.90;;;;;;5037647;28;20308;-61
2023/06/18 10:11:10;;;;;;;7.07;5.10;;;24.40;99.90;;;;;;5038996;28;20254;-60
2023/06/18 10:13:44;;;;;;;6.17;5.67;;;24.40;99.90;;;;;;5019272;28;20214;-60
2023/06/18 10:16:22;;;;;;;6.40;5.13;;;24.50;99.90;;;;;;5032444;28;20195;-61
2023/06/18 10:18:59;;;;;;;6.80;5.82;;;24.60;99.90;;;;;;5035959;28;20240;-61
2023/06/18 10:21:28;;;;;;;8.37;5.07;;;24.50;99.90;;;;;;5036205;28;20239;-60
2023/06/18 10:24:04;;;;;;;6.13;5.43;;;24.40;99.90;;;;;;5036496;28;20208;-61
2023/06/18 10:26:31;;;;;;;5.57;5.10;;;24.40;99.90;;;;;;5037155;28;20608;-60
2023/06/18 10:28:58;;;;;;;6.32;5.60;;;24.40;99.90;;;;;;5036471;28;20885;-61
2023/06/18 10:31:26;;;;;;;5.90;5.05;;;24.50;99.90;;;;;;5018377;28;20364;-61
2023/06/18 10:33:55;;;;;;;8.40;5.35;;;24.50;99.90;;;;;;5037978;28;20663;-60
2023/06/18 10:36:23;;;;;;;5.43;4.93;;;24.60;99.90;;;;;;5037597;28;21000;-60
2023/06/18 10:38:50;;;;;;;5.68;5.15;;;24.50;99.90;;;;;;5032164;28;20617;-60
2023/06/18 10:41:19;;;;;;;6.82;5.45;;;24.40;99.90;;;;;;5031586;28;20208;-60
2023/06/18 10:43:51;;;;;;;5.75;5.22;;;24.50;99.90;;;;;;5015251;28;20204;-59
2023/06/18 10:46:19;;;;;;;6.38;5.60;;;24.40;99.90;;;;;;5006462;28;20532;-61
2023/06/18 10:49:15;;;;;;;7.13;5.97;;;24.50;99.90;;;;;;5034604;28;20204;-59
2023/06/18 10:52:01;;;;;;;6.77;6.07;;;24.50;99.90;;;;;;5036711;28;20203;-59
2023/06/18 10:54:29;;;;;;;7.38;5.45;;;24.50;99.90;;;;;;5022686;28;20226;-59
2023/06/18 10:57:01;;;;;;;7.37;5.83;;;24.50;99.90;;;;;;5034895;28;20207;-59
2023/06/18 10:59:49;;;;;;;6.85;5.28;;;24.50;99.90;;;;;;5038095;28;20301;-59
2023/06/18 11:02:34;;;;;;;8.60;5.65;;;24.70;99.90;;;;;;5019164;28;20309;-60
2023/06/18 11:05:02;;;;;;;8.55;5.43;;;24.70;99.90;;;;;;5037661;28;20200;-59
2023/06/18 11:07:30;;;;;;;7.10;5.97;;;24.70;99.90;;;;;;5035962;28;20219;-59
2023/06/18 11:10:04;;;;;;;5.95;5.45;;;24.80;99.90;;;;;;5020879;28;20214;-59
2023/06/18 11:12:35;;;;;;;7.17;5.63;;;24.80;99.90;;;;;;5038443;28;20203;-59
2023/06/18 11:15:05;;;;;;;6.05;5.47;;;24.80;99.90;;;;;;5042808;28;20218;-59
2023/06/18 11:17:33;;;;;;;7.53;5.93;;;24.70;99.90;;;;;;5042331;28;20200;-59
2023/06/18 11:20:01;;;;;;;7.32;5.82;;;24.80;99.90;;;;;;5038199;28;20628;-60
2023/06/18 11:22:28;;;;;;;7.95;5.88;;;24.60;99.90;;;;;;5039004;28;20325;-59
2023/06/18 11:24:58;;;;;;;6.90;5.80;;;24.50;99.90;;;;;;5041369;28;20204;-60
2023/06/18 11:27:26;;;;;;;6.13;5.55;;;24.50;99.90;;;;;;5038941;28;22003;-59
2023/06/18 11:30:40;;;;;;;8.20;6.25;;;24.70;99.90;;;;;;5022855;28;20242;-63
2023/06/18 11:33:05;;;;;;;6.13;5.53;;;24.60;99.90;;;;;;5040595;28;20646;-61
2023/06/18 11:35:38;;;;;;;6.55;5.85;;;24.60;99.90;;;;;;5045782;28;20253;-61
2023/06/18 11:38:05;;;;;;;9.33;6.37;;;24.70;99.90;;;;;;5024311;28;20906;-59
2023/06/18 11:40:32;;;;;;;6.77;6.17;;;24.50;99.90;;;;;;5007741;28;20234;-60
2023/06/18 11:43:02;;;;;;;6.65;5.90;;;24.70;99.90;;;;;;5031797;28;20254;-59
2023/06/18 11:45:29;;;;;;;7.38;6.72;;;24.70;99.90;;;;;;5020514;28;20284;-60
2023/06/18 11:47:56;;;;;;;6.88;6.18;;;24.30;99.90;;;;;;5024364;28;20548;-59
2023/06/18 11:50:26;;;;;;;6.55;5.88;;;24.50;99.90;;;;;;5037552;28;20315;-59
2023/06/18 11:52:53;;;;;;;7.50;6.20;;;24.60;99.90;;;;;;5019240;28;20195;-61
2023/06/18 11:55:20;;;;;;;8.73;6.35;;;24.60;99.90;;;;;;5034392;28;20991;-62
2023/06/18 11:57:48;;;;;;;9.77;6.72;;;24.50;99.90;;;;;;5035001;28;20200;-62
2023/06/18 12:00:16;;;;;;;6.53;5.93;;;24.60;99.90;;;;;;5020565;28;20196;-61
2023/06/18 12:02:43;;;;;;;7.60;6.65;;;24.60;99.90;;;;;;5036265;28;20205;-62
2023/06/18 12:05:10;;;;;;;7.70;6.97;;;24.80;99.90;;;;;;5033701;28;20204;-59
2023/06/18 12:07:41;;;;;;;6.70;6.10;;;24.90;99.90;;;;;;5037582;28;20234;-60
2023/06/18 12:10:10;;;;;;;7.20;6.50;;;24.90;99.90;;;;;;5040099;28;20275;-60
2023/06/18 12:12:51;;;;;;;7.40;6.20;;;25.00;99.90;;;;;;5033974;28;20262;-60
2023/06/18 12:15:29;;;;;;;7.40;6.68;;;25.00;99.90;;;;;;5038379;28;20365;-60
2023/06/18 12:18:18;;;;;;;7.18;6.47;;;24.80;99.90;;;;;;5036643;28;20192;-60
2023/06/18 12:20:46;;;;;;;6.50;5.85;;;24.80;99.90;;;;;;4996269;28;1174580;-60
2023/06/18 12:23:13;;;;;;;6.68;5.88;;;24.80;99.90;;;;;;5034621;28;20200;-60
2023/06/18 12:25:40;;;;;;;6.50;5.60;;;24.80;99.90;;;;;;5021579;28;20188;-60
2023/06/18 12:28:07;;;;;;;7.25;6.32;;;24.90;99.90;;;;;;5037266;28;20203;-60
2023/06/18 12:30:39;;;;;;;8.25;5.78;;;25.00;99.90;;;;;;5038499;28;20216;-60
2023/06/18 12:33:13;;;;;;;6.47;5.83;;;24.70;99.90;;;;;;5031370;28;20279;-60
2023/06/18 12:35:54;;;;;;;6.85;6.20;;;24.80;99.90;;;;;;5038084;28;20204;-61
2023/06/18 12:38:21;;;;;;;7.32;5.97;;;24.80;99.90;;;;;;5037590;28;20211;-60
2023/06/18 12:41:00;;;;;;;6.95;5.60;;;24.80;99.90;;;;;;5034227;28;20204;-60
2023/06/18 12:43:27;;;;;;;6.07;5.57;;;24.80;99.90;;;;;;5036845;28;20208;-60
2023/06/18 12:45:54;;;;;;;8.38;6.40;;;24.80;99.90;;;;;;5036583;28;20728;-60
2023/06/18 12:48:26;;;;;;;6.23;5.63;;;24.80;99.90;;;;;;5037951;28;20535;-61